| Piloto: | GLD1744 Wesley I. | Aeronave: | Cessna | Distância: | 54NM |
| Origem: | SBJD | Destino: | SDCO | Duração: | 0.89 |
| Validação: | Validado | Tipo: | Charter | Matrícula: | PT-GLD |
| ZFW: | 1422 | Block Fuel/Init FOB | 24/17 | Combustível em Voo | 24 |
| Passageiros: | 0 | Carga: | 0 | Alternativo: | SBMT |
| Hora da Decolagem: | 0206 | Velocidade de Cruzeiro: | 0095 | Nível de Voo: | VFR |
| Regra Visual: | VFR | ICAO da Aeronave: | C152 | Unidade de Peso: | Kg |
| Data: | 25/04/2026 | Observação: | GOLD ACARS | Rede: | IVAO |
| Acidentou?: | Não | Comentários do Validador: | Pontuação do Voo | 98.01 |
| ROTA | REA |
| REMARKS | OPR/GOLD VIRTUAL AIRLINES PER/A RMK/FROM SBJD RMK/PIC GLD1744/REA JAPI CHARLIE ALFA/ALT MAX REA RMK/EM TREINAMENTO VFR |
Para entender como cada item é pontuado, consulte as regras de avaliação.
Nenhuma penalidade registrada para este voo.
| Vento durante o pouso: | 114º/3 kt | Proa durante o pouso: | 160 |
| V/S do Pouso: | -25 ft/min | IAS do Pouso: | 49 kt |
| Força G no pouso: | 1.0496 G | Bank no pouso: | -0.42 |
| Pitch no Pouso | 3.66 | Flaps no Pouso | 33 |
| Nav Lights | ON | Landing Lights | ON |
| Beacon Lights | ON | Strobe Lights | ON |
| DATA | EVENTO | IAS | ALTITUDE |
|---|---|---|---|
| 2026-04-25 02:06:37 | GOLD ACARS VERSION 3.3.6.9 | 0 | 0 |
| 2026-04-25 02:06:37 | BOARDING | 0 | 2567 |
| 2026-04-25 02:11:26 | FLAP 33% | 0 | 2567 |
| 2026-04-25 02:11:28 | FLAP 66% | 0 | 2567 |
| 2026-04-25 02:11:38 | FLAP 0% | 0 | 2567 |
| 2026-04-25 02:12:12 | FLAP 33% | 0 | 2567 |
| 2026-04-25 02:12:13 | FLAP 66% | 0 | 2567 |
| 2026-04-25 02:12:44 | NAV LIGHTS ON | 0 | 2567 |
| 2026-04-25 02:13:05 | BCN LIGHTS ON | 0 | 2567 |
| 2026-04-25 02:13:58 | STARTING ENGINE 1 | 0 | 2569 |
| 2026-04-25 02:14:58 | FLAP 0% | 0 | 2569 |
| 2026-04-25 02:16:28 | TAXI TO THE RWY | 0 | 2515 |
| 2026-04-25 02:16:28 | TAXING WITH TAXI LIGHTS OFF | 0 | 2515 |
| 2026-04-25 02:16:29 | TAXI LIGHTS ON | 0 | 2515 |
| 2026-04-25 02:18:29 | FLAP 33% | 0 | 2516 |
| 2026-04-25 02:18:43 | LND LIGHTS ON | 0 | 2516 |
| 2026-04-25 02:18:46 | STB LIGHTS ON | 0 | 2516 |
| 2026-04-25 02:18:48 | FLAP 0% | 0 | 2516 |
| 2026-04-25 02:21:37 | TAXI LIGHTS OFF | 0 | 2516 |
| 2026-04-25 02:22:35 | GEAR UP | 73 | 2517 |
| 2026-04-25 02:22:36 | CLIMBING | 75 | 2530 |
| 2026-04-25 02:22:37 | CRUISE | 74 | 2537 |
| 2026-04-25 02:22:40 | CLIMBING | 75 | 2556 |
| 2026-04-25 02:22:41 | CRUISE | 78 | 2568 |
| 2026-04-25 02:22:47 | CLIMBING | 84 | 2585 |
| 2026-04-25 02:23:28 | CRUISE | 79 | 3040 |
| 2026-04-25 02:23:37 | CLIMBING | 81 | 3100 |
| 2026-04-25 02:23:45 | CRUISE | 83 | 3160 |
| 2026-04-25 02:23:49 | CLIMBING | 84 | 3176 |
| 2026-04-25 02:24:00 | CRUISE | 81 | 3297 |
| 2026-04-25 02:24:10 | CLIMBING | 81 | 3327 |
| 2026-04-25 02:24:59 | CRUISE | 81 | 3857 |
| 2026-04-25 02:25:08 | CLIMBING | 82 | 3888 |
| 2026-04-25 02:25:34 | CRUISE | 76 | 4167 |
| 2026-04-25 02:25:38 | CLIMBING | 79 | 4190 |
| 2026-04-25 02:26:17 | CRUISE | 79 | 4751 |
| 2026-04-25 02:26:33 | CLIMBING | 92 | 4770 |
| 2026-04-25 02:26:35 | CRUISE | 91 | 4789 |
| 2026-04-25 02:27:37 | CLIMBING | 96 | 4316 |
| 2026-04-25 02:27:42 | CRUISE | 93 | 4347 |
| 2026-04-25 02:27:46 | CLIMBING | 87 | 4372 |
| 2026-04-25 02:27:55 | CRUISE | 86 | 4457 |
| 2026-04-25 02:28:06 | CLIMBING | 93 | 4504 |
| 2026-04-25 02:28:12 | CRUISE | 90 | 4560 |
| 2026-04-25 02:28:28 | CLIMBING | 97 | 4595 |
| 2026-04-25 02:28:38 | CRUISE | 95 | 4683 |
| 2026-04-25 02:28:51 | CLIMBING | 94 | 4737 |
| 2026-04-25 02:28:58 | CRUISE | 90 | 4786 |
| 2026-04-25 02:31:27 | CLIMBING | 88 | 4262 |
| 2026-04-25 02:31:33 | CRUISE | 88 | 4307 |
| 2026-04-25 02:31:46 | CLIMBING | 94 | 4357 |
| 2026-04-25 02:32:01 | CRUISE | 91 | 4504 |
| 2026-04-25 02:33:46 | CLIMBING | 97 | 4625 |
| 2026-04-25 02:34:02 | CRUISE | 92 | 4792 |
| 2026-04-25 02:34:15 | CLIMBING | 96 | 4846 |
| 2026-04-25 02:34:28 | CRUISE | 93 | 4947 |
| 2026-04-25 02:34:52 | CLIMBING | 96 | 5015 |
| 2026-04-25 02:34:58 | CRUISE | 93 | 5058 |
| 2026-04-25 02:36:23 | CLIMBING | 97 | 5129 |
| 2026-04-25 02:36:37 | CRUISE | 90 | 5267 |
| 2026-04-25 02:36:59 | DESCEND | 96 | 5285 |
| 2026-04-25 02:37:13 | CLIMBING | 108 | 5060 |
| 2026-04-25 02:37:39 | CRUISE | 105 | 5025 |
| 2026-04-25 02:37:50 | DESCEND | 98 | 5054 |
| 2026-04-25 02:39:42 | CLIMBING | 98 | 4902 |
| 2026-04-25 02:39:53 | CRUISE | 90 | 5006 |
| 2026-04-25 02:39:57 | DESCEND | 93 | 4998 |
| 2026-04-25 02:45:43 | CLIMBING | 93 | 3869 |
| 2026-04-25 02:45:51 | CRUISE | 87 | 3948 |
| 2026-04-25 02:49:20 | LANDING | 92 | 3447 |
| 2026-04-25 02:50:35 | CLIMBING | 86 | 2891 |
| 2026-04-25 02:50:47 | CRUISE | 66 | 3014 |
| 2026-04-25 02:51:23 | LANDING | 89 | 3035 |
| 2026-04-25 02:51:32 | CLIMBING | 87 | 3032 |
| 2026-04-25 02:51:38 | CRUISE | 80 | 3084 |
| 2026-04-25 02:51:51 | LANDING | 84 | 3071 |
| 2026-04-25 02:53:20 | FLAP 33% | 84 | 2582 |
| 2026-04-25 02:54:57 | LANDED AIRPORT [SDCO] | 50 | 2074 |
| 2026-04-25 02:54:58 | LANDED - VS: -25 ft/min | 49 | 2073 |
| 2026-04-25 02:55:04 | TAXI TO THE GATE | 29 | 2077 |
| 2026-04-25 02:55:51 | TAXI LIGHTS ON | 0 | 2090 |
| 2026-04-25 02:55:56 | LND LIGHTS OFF | 0 | 2090 |
| 2026-04-25 02:55:57 | STB LIGHTS OFF | 0 | 2090 |
| 2026-04-25 02:56:30 | AT THE GATE | 0 | 2090 |
| 2026-04-25 02:57:42 | STOPPING ENGINE 1 | 0 | 2073 |
| 2026-04-25 02:57:46 | LND LIGHTS ON | 0 | 2073 |
| 2026-04-25 02:57:47 | LND LIGHTS OFF | 0 | 2073 |
| 2026-04-25 02:57:50 | TAXI LIGHTS OFF | 0 | 2073 |
| 2026-04-25 02:57:51 | BCN LIGHTS OFF | 0 | 2073 |
| 2026-04-25 03:00:02 | LANDED NOT IN THE PLANNED AIRPORT [SDSO] - [lat: -23,4805388716277] - [long: -47,4906738213937] | 0 | 2073 |
| 2026-04-25 03:00:02 | FLIGHT FINISHED | 0 | 2073 |
| DATA | IAS | GS | ALTITUDE | COMBUSTÍVEL USADO | OAT | FASE DO VOO |
|---|---|---|---|---|---|---|
| 2026-04-25 02:08:37 | 0 | 0 | 2567 | 0 | 18 | BOARDING |
| 2026-04-25 02:09:37 | 0 | 0 | 2567 | 0 | 18 | BOARDING |
| 2026-04-25 02:10:37 | 0 | 0 | 2567 | 0 | 18 | BOARDING |
| 2026-04-25 02:11:37 | 0 | 0 | 2567 | 0 | 18 | BOARDING |
| 2026-04-25 02:12:38 | 0 | 0 | 2567 | 0 | 18 | BOARDING |
| 2026-04-25 02:13:38 | 0 | 0 | 2569 | 0 | 18 | BOARDING |
| 2026-04-25 02:14:38 | 0 | 0 | 2569 | 0 | 18 | BOARDING |
| 2026-04-25 02:15:38 | 0 | 0 | 2519 | 0 | 18 | BOARDING |
| 2026-04-25 02:16:38 | 0 | 3 | 2515 | 0 | 18 | BOARDING |
| 2026-04-25 02:17:38 | 0 | 0 | 2516 | 0 | 18 | TAXI TO THE RWY |
| 2026-04-25 02:18:38 | 0 | 0 | 2516 | 0 | 18 | TAXI TO THE RWY |
| 2026-04-25 02:19:38 | 2 | 21 | 2518 | 0 | 18 | TAXI TO THE RWY |
| 2026-04-25 02:20:38 | 0 | 17 | 2516 | 0 | 18 | TAXI TO THE RWY |
| 2026-04-25 02:21:38 | 0 | 0 | 2516 | 0 | 18 | TAXI TO THE RWY |
| 2026-04-25 02:22:38 | 76 | 77 | 2543 | 0 | 18 | TAXI TO THE RWY |
| 2026-04-25 02:23:38 | 81 | 81 | 3105 | 1 | 18 | CRUISE |
| 2026-04-25 02:24:38 | 90 | 101 | 3565 | 1 | 18 | CLIMBING |
| 2026-04-25 02:25:38 | 79 | 96 | 4190 | 1 | 17 | CLIMBING |
| 2026-04-25 02:26:38 | 99 | 110 | 4772 | 2 | 17 | CLIMBING |
| 2026-04-25 02:27:39 | 95 | 107 | 4325 | 2 | 18 | CRUISE |
| 2026-04-25 02:28:39 | 96 | 105 | 4689 | 2 | 17 | CLIMBING |
| 2026-04-25 02:29:39 | 97 | 107 | 4604 | 2 | 17 | CRUISE |
| 2026-04-25 02:30:39 | 95 | 105 | 4332 | 2 | 18 | CRUISE |
| 2026-04-25 02:31:40 | 94 | 102 | 4323 | 3 | 18 | CRUISE |
| 2026-04-25 02:32:40 | 96 | 104 | 4520 | 3 | 18 | CRUISE |
| 2026-04-25 02:33:40 | 96 | 104 | 4608 | 3 | 18 | CRUISE |
| 2026-04-25 02:34:40 | 95 | 103 | 4971 | 4 | 17 | CRUISE |
| 2026-04-25 02:35:40 | 95 | 103 | 5031 | 4 | 17 | CRUISE |
| 2026-04-25 02:36:40 | 92 | 100 | 5274 | 4 | 16 | CRUISE |
| 2026-04-25 02:37:40 | 105 | 107 | 5023 | 4 | 17 | CRUISE |
| 2026-04-25 02:38:40 | 102 | 106 | 4961 | 5 | 17 | CRUISE |
| 2026-04-25 02:39:40 | 99 | 104 | 4898 | 5 | 17 | DESCEND |
| 2026-04-25 02:40:41 | 97 | 102 | 5008 | 5 | 17 | DESCEND |
| 2026-04-25 02:41:41 | 96 | 100 | 5015 | 5 | 17 | DESCEND |
| 2026-04-25 02:42:41 | 101 | 112 | 4980 | 5 | 17 | DESCEND |
| 2026-04-25 02:43:41 | 94 | 105 | 4854 | 6 | 17 | DESCEND |
| 2026-04-25 02:44:41 | 96 | 104 | 4207 | 6 | 18 | DESCEND |
| 2026-04-25 02:45:41 | 94 | 101 | 3861 | 6 | 19 | DESCEND |
| 2026-04-25 02:46:41 | 91 | 99 | 3991 | 6 | 19 | DESCEND |
| 2026-04-25 02:47:41 | 93 | 102 | 4022 | 6 | 19 | CRUISE |
| 2026-04-25 02:48:42 | 91 | 101 | 3778 | 6 | 19 | CRUISE |
| 2026-04-25 02:49:42 | 91 | 100 | 3281 | 7 | 20 | CRUISE |
| 2026-04-25 02:50:42 | 73 | 82 | 2968 | 7 | 20 | LANDING |
| 2026-04-25 02:51:42 | 81 | 89 | 3084 | 7 | 20 | CLIMBING |
| 2026-04-25 02:52:42 | 81 | 89 | 2815 | 7 | 20 | CRUISE |
| 2026-04-25 02:53:42 | 68 | 72 | 2485 | 7 | 19 | LANDING |
| 2026-04-25 02:54:42 | 59 | 64 | 2172 | 7 | 19 | LANDING |
| 2026-04-25 02:55:43 | 0 | 13 | 2089 | 7 | 19 | LANDING |
| 2026-04-25 02:56:43 | 0 | 5 | 2090 | 7 | 19 | TAXI TO THE GATE |
| 2026-04-25 02:57:43 | 0 | 0 | 2073 | 7 | 19 | AT THE GATE |